LiveATC.Net - Listen to live air traffic control over the Internet!


ICAO: SSBL  IATA:   Airport: Blumenau Airport
City: Blumenau
Country: Brazil   Continent: South America
SBNF METAR Weather: SBNF 201100Z 23006KT 9999 SCT013 BKN046 27/24 Q1016
SSBL Flight Activity (FlightAware)
SSBL Webcam:  (Airport Webcams) 

SSBL Air to Air
Feed Status: UP   Listeners: 0
Listen in your browser - HTML5 player (in browser, HTML5)
Click here to listen with your own player (launches your MP3 player)
Archive Access: SSBL Air to Air
FacilityFrequency
Air to Air123.450

NOTICE

Unauthorized use prohibited. See LiveATC.net Terms of Service


Airport/ARTCC Code
Frequency Search
(e.g., 124.400, 128.75)
Site-wide search
 


Browse Feeds
Top 50 Feeds
HF Oceanic Feeds
Coverage Map
Bad Weather Areas

LiveATC FAQ
Offer LiveATC feed
Contact LiveATC.net
Press Inquiries

LiveATC on iPhone
LiveATC on Android

LiveATC Mobile
(Mobile browser)

ATC Audio Archives
Interesting Recordings

LiveATC Forums


Home Page
About LiveATC.net
Make a Donation
Terms of Use
Privacy Policy

Canadian Air Freqs

AIRMETs/SIGMETs

FAA Airport Status
NAS Status
Arrival Demand


Server Software By:
Icecast.org
Liquidsoap